Terminal Aerodrome Forecast
Issued by NWS

Home | Current Version | Previous Version | Text Only | Print | Product List | Glossary Off
Versions: 1 2 3 4 5 6 7 8 9 10 11 12 13 14 15 16 17 18 19 20 21

996
FTUS43 KFGF 171125
TAFBJI
TAF
KBJI 171125Z 1712/1812 21004KT 2SM BR OVC002
     FM171700 24006KT 5SM BR SCT010
     FM171800 24006KT P6SM FEW120
     FM180700 21008KT P6SM BKN110=

USA.gov is the U.S. government's official web portal to all federal, state and local government web resources and services.